sensor_id;sensor_type;location;lat;lon;timestamp;temperature;humidity
1075;DHT22;526;51.392;12.448;2022-09-09T00:07:07;14.80;97.30
1075;DHT22;526;51.392;12.448;2022-09-09T00:15:08;14.80;97.30
1075;DHT22;526;51.392;12.448;2022-09-09T00:17:49;14.80;97.30
1075;DHT22;526;51.392;12.448;2022-09-09T00:20:32;14.80;97.30
1075;DHT22;526;51.392;12.448;2022-09-09T00:29:01;14.70;97.30
1075;DHT22;526;51.392;12.448;2022-09-09T00:31:30;14.60;97.30
1075;DHT22;526;51.392;12.448;2022-09-09T00:34:18;14.60;97.30
1075;DHT22;526;51.392;12.448;2022-09-09T00:36:45;14.50;97.30
1075;DHT22;526;51.392;12.448;2022-09-09T00:39:27;14.50;97.30
1075;DHT22;526;51.392;12.448;2022-09-09T00:42:16;14.50;97.30
1075;DHT22;526;51.392;12.448;2022-09-09T00:58:07;14.60;97.30
1075;DHT22;526;51.392;12.448;2022-09-09T01:00:57;14.60;97.30
1075;DHT22;526;51.392;12.448;2022-09-09T01:06:20;14.60;97.30
1075;DHT22;526;51.392;12.448;2022-09-09T01:09:05;14.70;97.30
1075;DHT22;526;51.392;12.448;2022-09-09T01:17:12;14.60;97.30
1075;DHT22;526;51.392;12.448;2022-09-09T01:22:30;14.60;97.30
1075;DHT22;526;51.392;12.448;2022-09-09T01:25:18;14.60;97.30
1075;DHT22;526;51.392;12.448;2022-09-09T01:27:47;14.60;97.30
1075;DHT22;526;51.392;12.448;2022-09-09T01:30:16;14.60;97.30
1075;DHT22;526;51.392;12.448;2022-09-09T01:32:47;14.60;97.30
1075;DHT22;526;51.392;12.448;2022-09-09T01:35:32;14.60;97.30
1075;DHT22;526;51.392;12.448;2022-09-09T01:38:00;14.50;97.30
1075;DHT22;526;51.392;12.448;2022-09-09T01:40:26;14.50;97.30
1075;DHT22;526;51.392;12.448;2022-09-09T01:42:53;14.50;97.30
1075;DHT22;526;51.392;12.448;2022-09-09T01:45:20;14.50;97.30
1075;DHT22;526;51.392;12.448;2022-09-09T01:47:46;14.50;97.30
1075;DHT22;526;51.392;12.448;2022-09-09T01:50:15;14.40;97.30
1075;DHT22;526;51.392;12.448;2022-09-09T01:52:42;14.40;97.30
1075;DHT22;526;51.392;12.448;2022-09-09T01:55:09;14.40;97.30
1075;DHT22;526;51.392;12.448;2022-09-09T02:00:45;14.30;97.30
1075;DHT22;526;51.392;12.448;2022-09-09T02:03:29;14.20;97.30
1075;DHT22;526;51.392;12.448;2022-09-09T02:08:55;14.20;97.30
1075;DHT22;526;51.392;12.448;2022-09-09T02:11:24;14.20;97.30
1075;DHT22;526;51.392;12.448;2022-09-09T02:13:54;14.10;97.30
1075;DHT22;526;51.392;12.448;2022-09-09T02:16:47;14.10;97.30
1075;DHT22;526;51.392;12.448;2022-09-09T02:19:21;14.10;97.30
1075;DHT22;526;51.392;12.448;2022-09-09T02:21:52;14.10;97.30
1075;DHT22;526;51.392;12.448;2022-09-09T02:24:22;14.10;97.30
1075;DHT22;526;51.392;12.448;2022-09-09T02:26:53;14.00;97.30
1075;DHT22;526;51.392;12.448;2022-09-09T02:29:40;14.00;97.30
1075;DHT22;526;51.392;12.448;2022-09-09T02:32:23;14.00;97.30
1075;DHT22;526;51.392;12.448;2022-09-09T02:34:57;14.00;97.30
1075;DHT22;526;51.392;12.448;2022-09-09T02:37:27;13.90;97.30
1075;DHT22;526;51.392;12.448;2022-09-09T02:39:54;13.90;97.30
1075;DHT22;526;51.392;12.448;2022-09-09T02:42:28;14.00;97.30
1075;DHT22;526;51.392;12.448;2022-09-09T02:44:56;14.00;97.30
1075;DHT22;526;51.392;12.448;2022-09-09T02:47:35;14.00;97.30
1075;DHT22;526;51.392;12.448;2022-09-09T02:55:47;14.00;97.30
1075;DHT22;526;51.392;12.448;2022-09-09T02:58:16;14.00;97.30
1075;DHT22;526;51.392;12.448;2022-09-09T03:00:49;14.00;97.30
1075;DHT22;526;51.392;12.448;2022-09-09T03:03:16;14.00;97.30
1075;DHT22;526;51.392;12.448;2022-09-09T03:05:45;14.00;97.30
1075;DHT22;526;51.392;12.448;2022-09-09T03:08:14;14.00;97.30
1075;DHT22;526;51.392;12.448;2022-09-09T03:10:39;14.00;97.30
1075;DHT22;526;51.392;12.448;2022-09-09T03:13:05;14.00;97.30
1075;DHT22;526;51.392;12.448;2022-09-09T03:15:32;14.00;97.30
1075;DHT22;526;51.392;12.448;2022-09-09T03:17:58;14.00;97.30
1075;DHT22;526;51.392;12.448;2022-09-09T03:20:26;14.00;97.30
1075;DHT22;526;51.392;12.448;2022-09-09T03:22:52;14.00;97.30
1075;DHT22;526;51.392;12.448;2022-09-09T03:25:18;14.00;97.30
1075;DHT22;526;51.392;12.448;2022-09-09T03:27:45;14.00;97.30
1075;DHT22;526;51.392;12.448;2022-09-09T03:30:11;14.00;97.30
1075;DHT22;526;51.392;12.448;2022-09-09T03:32:37;14.00;97.30
1075;DHT22;526;51.392;12.448;2022-09-09T03:35:03;14.00;97.30
1075;DHT22;526;51.392;12.448;2022-09-09T03:37:29;14.00;97.30
1075;DHT22;526;51.392;12.448;2022-09-09T03:39:54;14.00;97.30
1075;DHT22;526;51.392;12.448;2022-09-09T03:42:20;14.00;97.30
1075;DHT22;526;51.392;12.448;2022-09-09T03:44:47;14.00;97.30
1075;DHT22;526;51.392;12.448;2022-09-09T03:47:20;14.00;97.30
1075;DHT22;526;51.392;12.448;2022-09-09T03:49:52;14.00;97.30
1075;DHT22;526;51.392;12.448;2022-09-09T03:52:27;14.00;97.30
1075;DHT22;526;51.392;12.448;2022-09-09T03:54:54;14.00;97.30
1075;DHT22;526;51.392;12.448;2022-09-09T03:57:28;14.00;97.30
1075;DHT22;526;51.392;12.448;2022-09-09T03:59:55;14.00;97.30
1075;DHT22;526;51.392;12.448;2022-09-09T04:02:20;14.00;97.30
1075;DHT22;526;51.392;12.448;2022-09-09T04:04:46;14.00;97.30
1075;DHT22;526;51.392;12.448;2022-09-09T04:07:12;13.90;97.30
1075;DHT22;526;51.392;12.448;2022-09-09T04:09:38;13.90;97.30
1075;DHT22;526;51.392;12.448;2022-09-09T04:12:04;13.90;97.30
1075;DHT22;526;51.392;12.448;2022-09-09T04:14:29;13.90;97.30
1075;DHT22;526;51.392;12.448;2022-09-09T04:16:55;13.90;97.30
1075;DHT22;526;51.392;12.448;2022-09-09T04:19:24;13.90;97.30
1075;DHT22;526;51.392;12.448;2022-09-09T04:21:50;13.80;97.30
1075;DHT22;526;51.392;12.448;2022-09-09T04:24:17;13.80;97.30
1075;DHT22;526;51.392;12.448;2022-09-09T04:26:42;13.80;97.30
1075;DHT22;526;51.392;12.448;2022-09-09T04:29:08;13.80;97.30
1075;DHT22;526;51.392;12.448;2022-09-09T04:31:34;13.80;97.30
1075;DHT22;526;51.392;12.448;2022-09-09T04:34:00;13.90;97.30
1075;DHT22;526;51.392;12.448;2022-09-09T04:36:38;13.90;97.30
1075;DHT22;526;51.392;12.448;2022-09-09T04:39:05;13.90;97.30
1075;DHT22;526;51.392;12.448;2022-09-09T04:41:31;13.90;97.30
1075;DHT22;526;51.392;12.448;2022-09-09T04:43:57;13.90;97.30
1075;DHT22;526;51.392;12.448;2022-09-09T04:46:40;14.00;97.30
1075;DHT22;526;51.392;12.448;2022-09-09T04:49:26;14.00;97.30
1075;DHT22;526;51.392;12.448;2022-09-09T04:51:52;14.00;97.30
1075;DHT22;526;51.392;12.448;2022-09-09T04:54:27;14.00;97.30
1075;DHT22;526;51.392;12.448;2022-09-09T04:56:55;14.00;97.30
1075;DHT22;526;51.392;12.448;2022-09-09T04:59:24;14.00;97.30
1075;DHT22;526;51.392;12.448;2022-09-09T05:01:50;14.10;97.30
1075;DHT22;526;51.392;12.448;2022-09-09T05:04:17;14.10;97.30
1075;DHT22;526;51.392;12.448;2022-09-09T05:06:44;14.10;97.30
1075;DHT22;526;51.392;12.448;2022-09-09T05:09:11;14.10;97.30
1075;DHT22;526;51.392;12.448;2022-09-09T05:11:36;14.10;97.30
1075;DHT22;526;51.392;12.448;2022-09-09T05:14:02;14.10;97.30
1075;DHT22;526;51.392;12.448;2022-09-09T05:16:28;14.10;97.30
1075;DHT22;526;51.392;12.448;2022-09-09T05:18:53;14.20;97.30
1075;DHT22;526;51.392;12.448;2022-09-09T05:21:21;14.20;97.30
1075;DHT22;526;51.392;12.448;2022-09-09T05:23:48;14.20;97.30
1075;DHT22;526;51.392;12.448;2022-09-09T05:26:16;14.20;97.30
1075;DHT22;526;51.392;12.448;2022-09-09T05:28:41;14.30;97.30
1075;DHT22;526;51.392;12.448;2022-09-09T05:31:09;14.30;97.30
1075;DHT22;526;51.392;12.448;2022-09-09T05:33:37;14.30;97.30
1075;DHT22;526;51.392;12.448;2022-09-09T05:36:08;14.40;97.30
1075;DHT22;526;51.392;12.448;2022-09-09T05:38:34;14.40;97.30
1075;DHT22;526;51.392;12.448;2022-09-09T05:41:02;14.50;97.30
1075;DHT22;526;51.392;12.448;2022-09-09T05:43:28;14.50;97.30
1075;DHT22;526;51.392;12.448;2022-09-09T05:46:02;14.50;97.30
1075;DHT22;526;51.392;12.448;2022-09-09T05:48:30;14.60;97.30
1075;DHT22;526;51.392;12.448;2022-09-09T05:50:56;14.60;97.30
1075;DHT22;526;51.392;12.448;2022-09-09T05:53:21;14.60;97.30
1075;DHT22;526;51.392;12.448;2022-09-09T05:55:47;14.60;97.30
1075;DHT22;526;51.392;12.448;2022-09-09T05:58:13;14.70;97.30
1075;DHT22;526;51.392;12.448;2022-09-09T06:00:39;14.70;97.30
1075;DHT22;526;51.392;12.448;2022-09-09T06:03:05;14.80;97.30
1075;DHT22;526;51.392;12.448;2022-09-09T06:05:30;14.80;97.30
1075;DHT22;526;51.392;12.448;2022-09-09T06:07:56;14.90;97.30
1075;DHT22;526;51.392;12.448;2022-09-09T06:10:22;14.90;97.30
1075;DHT22;526;51.392;12.448;2022-09-09T06:12:48;14.90;97.30
1075;DHT22;526;51.392;12.448;2022-09-09T06:15:13;15.00;97.30
1075;DHT22;526;51.392;12.448;2022-09-09T06:17:39;15.00;97.30
1075;DHT22;526;51.392;12.448;2022-09-09T06:20:05;15.00;97.30
1075;DHT22;526;51.392;12.448;2022-09-09T06:22:31;15.10;97.30
1075;DHT22;526;51.392;12.448;2022-09-09T06:24:56;15.10;97.30
1075;DHT22;526;51.392;12.448;2022-09-09T06:27:22;15.20;97.30
1075;DHT22;526;51.392;12.448;2022-09-09T06:29:47;15.20;97.30
1075;DHT22;526;51.392;12.448;2022-09-09T06:32:13;15.30;97.30
1075;DHT22;526;51.392;12.448;2022-09-09T06:34:39;15.30;97.30
1075;DHT22;526;51.392;12.448;2022-09-09T06:37:05;15.40;97.30
1075;DHT22;526;51.392;12.448;2022-09-09T06:39:31;15.40;97.30
1075;DHT22;526;51.392;12.448;2022-09-09T06:41:57;15.40;97.30
1075;DHT22;526;51.392;12.448;2022-09-09T06:44:23;15.50;97.30
1075;DHT22;526;51.392;12.448;2022-09-09T06:46:51;15.50;97.30
1075;DHT22;526;51.392;12.448;2022-09-09T06:49:17;15.50;97.30
1075;DHT22;526;51.392;12.448;2022-09-09T06:51:43;15.60;97.30
1075;DHT22;526;51.392;12.448;2022-09-09T06:54:09;15.60;97.30
1075;DHT22;526;51.392;12.448;2022-09-09T06:56:36;15.60;97.30
1075;DHT22;526;51.392;12.448;2022-09-09T06:59:04;15.70;97.30
1075;DHT22;526;51.392;12.448;2022-09-09T07:01:36;15.70;97.30
1075;DHT22;526;51.392;12.448;2022-09-09T07:04:03;15.70;97.30
1075;DHT22;526;51.392;12.448;2022-09-09T07:06:31;15.80;97.30
1075;DHT22;526;51.392;12.448;2022-09-09T07:08:59;15.80;97.30
1075;DHT22;526;51.392;12.448;2022-09-09T07:11:28;15.90;97.30
1075;DHT22;526;51.392;12.448;2022-09-09T07:13:54;15.90;97.30
1075;DHT22;526;51.392;12.448;2022-09-09T07:16:21;16.00;97.30
1075;DHT22;526;51.392;12.448;2022-09-09T07:18:51;16.10;97.30
1075;DHT22;526;51.392;12.448;2022-09-09T07:21:18;16.10;97.30
1075;DHT22;526;51.392;12.448;2022-09-09T07:23:44;16.20;97.30
1075;DHT22;526;51.392;12.448;2022-09-09T07:26:12;16.20;97.30
1075;DHT22;526;51.392;12.448;2022-09-09T07:28:38;16.30;97.30
1075;DHT22;526;51.392;12.448;2022-09-09T07:31:05;16.40;97.30
1075;DHT22;526;51.392;12.448;2022-09-09T07:33:32;16.50;97.30
1075;DHT22;526;51.392;12.448;2022-09-09T07:36:06;16.60;97.30
1075;DHT22;526;51.392;12.448;2022-09-09T07:38:37;16.70;97.30
1075;DHT22;526;51.392;12.448;2022-09-09T07:41:08;16.80;97.30
1075;DHT22;526;51.392;12.448;2022-09-09T07:43:40;16.90;97.30
1075;DHT22;526;51.392;12.448;2022-09-09T07:46:06;17.00;97.30
1075;DHT22;526;51.392;12.448;2022-09-09T07:48:33;17.10;97.30
1075;DHT22;526;51.392;12.448;2022-09-09T07:51:11;17.20;97.30
1075;DHT22;526;51.392;12.448;2022-09-09T07:53:40;17.30;97.30
1075;DHT22;526;51.392;12.448;2022-09-09T07:56:08;17.50;97.30
1075;DHT22;526;51.392;12.448;2022-09-09T07:58:37;17.60;97.30
1075;DHT22;526;51.392;12.448;2022-09-09T08:01:08;17.60;97.30
1075;DHT22;526;51.392;12.448;2022-09-09T08:03:34;17.70;97.30
1075;DHT22;526;51.392;12.448;2022-09-09T08:06:01;17.80;97.30
1075;DHT22;526;51.392;12.448;2022-09-09T08:08:28;17.90;97.30
1075;DHT22;526;51.392;12.448;2022-09-09T08:11:00;18.00;97.30
1075;DHT22;526;51.392;12.448;2022-09-09T08:13:25;18.20;97.30
1075;DHT22;526;51.392;12.448;2022-09-09T08:15:52;18.30;97.30
1075;DHT22;526;51.392;12.448;2022-09-09T08:18:18;18.40;97.30
1075;DHT22;526;51.392;12.448;2022-09-09T08:20:43;18.60;97.30
1075;DHT22;526;51.392;12.448;2022-09-09T08:23:09;18.70;97.30
1075;DHT22;526;51.392;12.448;2022-09-09T08:25:34;18.90;97.30
1075;DHT22;526;51.392;12.448;2022-09-09T08:27:59;19.00;97.30
1075;DHT22;526;51.392;12.448;2022-09-09T08:30:25;19.10;97.30
1075;DHT22;526;51.392;12.448;2022-09-09T08:32:52;19.10;97.30
1075;DHT22;526;51.392;12.448;2022-09-09T08:35:17;19.10;97.30
1075;DHT22;526;51.392;12.448;2022-09-09T08:37:42;19.10;97.30
1075;DHT22;526;51.392;12.448;2022-09-09T08:40:20;19.10;97.30
1075;DHT22;526;51.392;12.448;2022-09-09T08:42:50;19.00;97.30
1075;DHT22;526;51.392;12.448;2022-09-09T08:45:29;19.10;97.30
1075;DHT22;526;51.392;12.448;2022-09-09T08:48:14;19.10;97.30
1075;DHT22;526;51.392;12.448;2022-09-09T08:50:42;19.20;97.30
1075;DHT22;526;51.392;12.448;2022-09-09T08:53:17;19.40;97.30
1075;DHT22;526;51.392;12.448;2022-09-09T08:55:50;19.50;97.30
1075;DHT22;526;51.392;12.448;2022-09-09T08:58:19;19.70;97.30
1075;DHT22;526;51.392;12.448;2022-09-09T09:01:18;19.80;97.30
1075;DHT22;526;51.392;12.448;2022-09-09T09:09:51;20.10;97.30
1075;DHT22;526;51.392;12.448;2022-09-09T09:12:21;20.20;97.30
1075;DHT22;526;51.392;12.448;2022-09-09T09:14:48;20.30;97.30
1075;DHT22;526;51.392;12.448;2022-09-09T09:17:18;20.40;97.30
1075;DHT22;526;51.392;12.448;2022-09-09T09:19:48;20.50;97.30
1075;DHT22;526;51.392;12.448;2022-09-09T09:22:19;20.60;97.30
1075;DHT22;526;51.392;12.448;2022-09-09T09:27:33;20.70;97.30
1075;DHT22;526;51.392;12.448;2022-09-09T09:30:15;20.80;97.30
1075;DHT22;526;51.392;12.448;2022-09-09T09:32:49;20.80;97.20
1075;DHT22;526;51.392;12.448;2022-09-09T09:35:16;20.90;97.30
1075;DHT22;526;51.392;12.448;2022-09-09T09:37:42;21.00;97.30
1075;DHT22;526;51.392;12.448;2022-09-09T09:42:35;21.20;97.30
1075;DHT22;526;51.392;12.448;2022-09-09T09:45:29;21.30;97.30
1075;DHT22;526;51.392;12.448;2022-09-09T09:48:06;21.40;96.50
1075;DHT22;526;51.392;12.448;2022-09-09T09:50:32;21.60;95.50
1075;DHT22;526;51.392;12.448;2022-09-09T09:53:06;21.70;96.40
1075;DHT22;526;51.392;12.448;2022-09-09T09:55:53;21.70;95.80
1075;DHT22;526;51.392;12.448;2022-09-09T09:58:20;21.90;95.90
1075;DHT22;526;51.392;12.448;2022-09-09T10:00:50;22.00;96.10
1075;DHT22;526;51.392;12.448;2022-09-09T10:03:25;22.10;95.20
1075;DHT22;526;51.392;12.448;2022-09-09T10:05:52;22.20;94.80
1075;DHT22;526;51.392;12.448;2022-09-09T10:08:18;22.20;94.40
1075;DHT22;526;51.392;12.448;2022-09-09T10:14:03;22.40;93.80
1075;DHT22;526;51.392;12.448;2022-09-09T10:19:32;22.70;94.00
1075;DHT22;526;51.392;12.448;2022-09-09T10:22:25;22.80;92.30
1075;DHT22;526;51.392;12.448;2022-09-09T10:25:13;22.80;92.50
1075;DHT22;526;51.392;12.448;2022-09-09T10:28:25;22.70;92.50
1075;DHT22;526;51.392;12.448;2022-09-09T10:33:41;22.70;93.10
1075;DHT22;526;51.392;12.448;2022-09-09T10:36:17;22.80;91.60
1075;DHT22;526;51.392;12.448;2022-09-09T10:39:05;22.80;93.20
1075;DHT22;526;51.392;12.448;2022-09-09T10:41:50;22.90;91.80
1075;DHT22;526;51.392;12.448;2022-09-09T10:44:46;22.90;91.80
1075;DHT22;526;51.392;12.448;2022-09-09T10:50:40;23.00;92.00
1075;DHT22;526;51.392;12.448;2022-09-09T10:53:18;23.00;91.90
1075;DHT22;526;51.392;12.448;2022-09-09T10:55:53;22.90;91.60
1075;DHT22;526;51.392;12.448;2022-09-09T10:58:29;22.70;91.90
1075;DHT22;526;51.392;12.448;2022-09-09T11:00:59;22.70;92.70
1075;DHT22;526;51.392;12.448;2022-09-09T11:03:28;22.80;92.50
1075;DHT22;526;51.392;12.448;2022-09-09T11:08:26;23.10;91.80
1075;DHT22;526;51.392;12.448;2022-09-09T11:11:03;23.20;91.30
1075;DHT22;526;51.392;12.448;2022-09-09T11:16:11;23.30;90.80
1075;DHT22;526;51.392;12.448;2022-09-09T11:18:41;23.20;91.50
1075;DHT22;526;51.392;12.448;2022-09-09T11:21:16;23.10;90.90
1075;DHT22;526;51.392;12.448;2022-09-09T11:23:52;23.10;91.80
1075;DHT22;526;51.392;12.448;2022-09-09T11:26:30;23.20;92.40
1075;DHT22;526;51.392;12.448;2022-09-09T11:29:30;23.40;91.00
1075;DHT22;526;51.392;12.448;2022-09-09T11:32:26;23.50;89.30
1075;DHT22;526;51.392;12.448;2022-09-09T11:35:14;23.40;88.70
1075;DHT22;526;51.392;12.448;2022-09-09T11:37:57;23.30;89.90
1075;DHT22;526;51.392;12.448;2022-09-09T11:40:28;23.30;90.10
1075;DHT22;526;51.392;12.448;2022-09-09T11:43:04;23.30;90.10
1075;DHT22;526;51.392;12.448;2022-09-09T11:45:31;23.50;89.30
1075;DHT22;526;51.392;12.448;2022-09-09T11:48:00;23.70;88.30
1075;DHT22;526;51.392;12.448;2022-09-09T11:53:02;24.10;87.90
1075;DHT22;526;51.392;12.448;2022-09-09T11:55:29;24.20;87.20
1075;DHT22;526;51.392;12.448;2022-09-09T11:58:02;24.30;86.80
1075;DHT22;526;51.392;12.448;2022-09-09T12:00:37;24.30;87.50
1075;DHT22;526;51.392;12.448;2022-09-09T12:03:43;24.40;84.60
1075;DHT22;526;51.392;12.448;2022-09-09T12:08:44;24.30;85.60
1075;DHT22;526;51.392;12.448;2022-09-09T12:11:11;24.40;83.30
1075;DHT22;526;51.392;12.448;2022-09-09T12:13:36;24.50;83.00
1075;DHT22;526;51.392;12.448;2022-09-09T12:16:04;24.50;83.80
1075;DHT22;526;51.392;12.448;2022-09-09T12:18:38;24.60;85.20
1075;DHT22;526;51.392;12.448;2022-09-09T12:24:10;24.80;82.40
1075;DHT22;526;51.392;12.448;2022-09-09T12:27:08;24.80;81.70
1075;DHT22;526;51.392;12.448;2022-09-09T12:32:16;25.00;83.00
1075;DHT22;526;51.392;12.448;2022-09-09T12:34:51;25.10;83.70
1075;DHT22;526;51.392;12.448;2022-09-09T12:37:50;25.20;82.80
1075;DHT22;526;51.392;12.448;2022-09-09T12:40:27;25.20;81.40
1075;DHT22;526;51.392;12.448;2022-09-09T12:42:53;25.20;82.40
1075;DHT22;526;51.392;12.448;2022-09-09T12:45:25;25.30;82.70
1075;DHT22;526;51.392;12.448;2022-09-09T12:48:09;25.40;82.00
1075;DHT22;526;51.392;12.448;2022-09-09T12:50:42;25.50;82.40
1075;DHT22;526;51.392;12.448;2022-09-09T12:53:24;25.60;82.40
1075;DHT22;526;51.392;12.448;2022-09-09T12:56:00;25.70;82.40
1075;DHT22;526;51.392;12.448;2022-09-09T12:58:29;25.80;81.90
1075;DHT22;526;51.392;12.448;2022-09-09T13:00:58;25.80;82.50
1075;DHT22;526;51.392;12.448;2022-09-09T13:03:25;25.90;81.40
1075;DHT22;526;51.392;12.448;2022-09-09T13:05:57;26.00;81.70
1075;DHT22;526;51.392;12.448;2022-09-09T13:08:25;26.10;79.70
1075;DHT22;526;51.392;12.448;2022-09-09T13:10:58;26.10;80.00
1075;DHT22;526;51.392;12.448;2022-09-09T13:13:38;26.10;81.20
1075;DHT22;526;51.392;12.448;2022-09-09T13:16:06;26.20;80.80
1075;DHT22;526;51.392;12.448;2022-09-09T13:18:41;26.20;78.70
1075;DHT22;526;51.392;12.448;2022-09-09T13:21:07;26.20;80.00
1075;DHT22;526;51.392;12.448;2022-09-09T13:23:35;26.20;81.50
1075;DHT22;526;51.392;12.448;2022-09-09T13:29:19;25.70;79.10
1075;DHT22;526;51.392;12.448;2022-09-09T13:31:45;25.30;80.50
1075;DHT22;526;51.392;12.448;2022-09-09T13:34:32;25.00;81.00
1075;DHT22;526;51.392;12.448;2022-09-09T13:37:39;24.60;81.30
1075;DHT22;526;51.392;12.448;2022-09-09T13:40:05;24.30;81.70
1075;DHT22;526;51.392;12.448;2022-09-09T13:42:34;24.20;82.60
1075;DHT22;526;51.392;12.448;2022-09-09T13:45:01;24.10;82.80
1075;DHT22;526;51.392;12.448;2022-09-09T13:47:32;24.00;82.60
1075;DHT22;526;51.392;12.448;2022-09-09T13:50:09;23.90;84.30
1075;DHT22;526;51.392;12.448;2022-09-09T13:52:34;23.90;83.40
1075;DHT22;526;51.392;12.448;2022-09-09T13:55:00;23.80;83.70
1075;DHT22;526;51.392;12.448;2022-09-09T13:57:26;23.70;83.40
1075;DHT22;526;51.392;12.448;2022-09-09T13:59:53;23.60;83.50
1075;DHT22;526;51.392;12.448;2022-09-09T14:02:20;23.50;84.10
1075;DHT22;526;51.392;12.448;2022-09-09T14:04:48;23.50;84.40
1075;DHT22;526;51.392;12.448;2022-09-09T14:07:16;23.40;84.90
1075;DHT22;526;51.392;12.448;2022-09-09T14:09:42;23.40;84.50
1075;DHT22;526;51.392;12.448;2022-09-09T14:12:13;23.30;85.10
1075;DHT22;526;51.392;12.448;2022-09-09T14:14:40;23.20;86.30
1075;DHT22;526;51.392;12.448;2022-09-09T14:17:08;23.00;89.60
1075;DHT22;526;51.392;12.448;2022-09-09T14:19:34;22.70;89.50
1075;DHT22;526;51.392;12.448;2022-09-09T14:22:00;22.20;91.60
1075;DHT22;526;51.392;12.448;2022-09-09T14:24:26;21.70;93.70
1075;DHT22;526;51.392;12.448;2022-09-09T14:26:53;21.40;95.20
1075;DHT22;526;51.392;12.448;2022-09-09T14:29:19;21.20;95.20
1075;DHT22;526;51.392;12.448;2022-09-09T14:31:44;21.00;96.60
1075;DHT22;526;51.392;12.448;2022-09-09T14:34:14;20.90;96.80
1075;DHT22;526;51.392;12.448;2022-09-09T14:36:42;20.90;97.30
1075;DHT22;526;51.392;12.448;2022-09-09T14:39:19;20.90;97.30
1075;DHT22;526;51.392;12.448;2022-09-09T14:41:45;20.80;97.10
1075;DHT22;526;51.392;12.448;2022-09-09T14:44:13;20.80;97.30
1075;DHT22;526;51.392;12.448;2022-09-09T14:46:43;20.70;97.30
1075;DHT22;526;51.392;12.448;2022-09-09T14:49:09;20.70;97.30
1075;DHT22;526;51.392;12.448;2022-09-09T14:51:36;20.70;97.30
1075;DHT22;526;51.392;12.448;2022-09-09T14:54:06;20.70;97.30
1075;DHT22;526;51.392;12.448;2022-09-09T14:56:33;20.70;97.30
1075;DHT22;526;51.392;12.448;2022-09-09T14:59:06;20.70;97.30
1075;DHT22;526;51.392;12.448;2022-09-09T15:01:36;20.70;97.30
1075;DHT22;526;51.392;12.448;2022-09-09T15:04:06;20.70;97.30
1075;DHT22;526;51.392;12.448;2022-09-09T15:06:34;20.70;97.30
1075;DHT22;526;51.392;12.448;2022-09-09T15:11:37;21.00;97.30
1075;DHT22;526;51.392;12.448;2022-09-09T15:14:04;21.40;97.30
1075;DHT22;526;51.392;12.448;2022-09-09T15:16:30;21.90;97.30
1075;DHT22;526;51.392;12.448;2022-09-09T15:18:58;22.30;97.30
1075;DHT22;526;51.392;12.448;2022-09-09T15:21:28;22.70;97.30
1075;DHT22;526;51.392;12.448;2022-09-09T15:23:55;23.00;97.10
1075;DHT22;526;51.392;12.448;2022-09-09T15:26:20;23.30;97.30
1075;DHT22;526;51.392;12.448;2022-09-09T15:28:46;23.50;95.80
1075;DHT22;526;51.392;12.448;2022-09-09T15:31:19;23.60;93.30
1075;DHT22;526;51.392;12.448;2022-09-09T15:33:55;23.50;92.90
1075;DHT22;526;51.392;12.448;2022-09-09T15:36:34;23.70;94.50
1075;DHT22;526;51.392;12.448;2022-09-09T15:39:01;23.90;92.60
1075;DHT22;526;51.392;12.448;2022-09-09T15:41:28;24.00;91.70
1075;DHT22;526;51.392;12.448;2022-09-09T15:43:56;24.20;90.90
1075;DHT22;526;51.392;12.448;2022-09-09T15:46:39;24.30;90.10
1075;DHT22;526;51.392;12.448;2022-09-09T15:51:43;24.40;88.40
1075;DHT22;526;51.392;12.448;2022-09-09T15:54:17;24.50;88.10
1075;DHT22;526;51.392;12.448;2022-09-09T15:56:44;24.50;86.20
1075;DHT22;526;51.392;12.448;2022-09-09T15:59:10;24.50;86.40
1075;DHT22;526;51.392;12.448;2022-09-09T16:01:35;24.50;85.80
1075;DHT22;526;51.392;12.448;2022-09-09T16:04:01;24.50;84.90
1075;DHT22;526;51.392;12.448;2022-09-09T16:06:28;24.50;85.00
1075;DHT22;526;51.392;12.448;2022-09-09T16:08:56;24.60;84.30
1075;DHT22;526;51.392;12.448;2022-09-09T16:11:25;24.60;84.20
1075;DHT22;526;51.392;12.448;2022-09-09T16:13:53;24.60;82.80
1075;DHT22;526;51.392;12.448;2022-09-09T16:16:24;24.60;83.80
1075;DHT22;526;51.392;12.448;2022-09-09T16:18:52;24.60;83.70
1075;DHT22;526;51.392;12.448;2022-09-09T16:21:21;24.60;83.50
1075;DHT22;526;51.392;12.448;2022-09-09T16:23:48;24.60;83.60
1075;DHT22;526;51.392;12.448;2022-09-09T16:26:15;24.60;84.30
1075;DHT22;526;51.392;12.448;2022-09-09T16:28:41;24.60;84.00
1075;DHT22;526;51.392;12.448;2022-09-09T16:31:19;24.50;83.90
1075;DHT22;526;51.392;12.448;2022-09-09T16:33:46;24.50;83.40
1075;DHT22;526;51.392;12.448;2022-09-09T16:36:23;24.30;82.90
1075;DHT22;526;51.392;12.448;2022-09-09T16:38:56;24.00;83.30
1075;DHT22;526;51.392;12.448;2022-09-09T16:41:23;23.70;83.70
1075;DHT22;526;51.392;12.448;2022-09-09T16:43:57;23.30;84.70
1075;DHT22;526;51.392;12.448;2022-09-09T16:46:24;23.10;85.50
1075;DHT22;526;51.392;12.448;2022-09-09T16:48:50;23.00;85.80
1075;DHT22;526;51.392;12.448;2022-09-09T16:51:17;22.90;85.90
1075;DHT22;526;51.392;12.448;2022-09-09T16:53:43;22.70;86.40
1075;DHT22;526;51.392;12.448;2022-09-09T16:56:11;22.60;87.00
1075;DHT22;526;51.392;12.448;2022-09-09T16:58:37;22.40;88.70
1075;DHT22;526;51.392;12.448;2022-09-09T17:01:04;22.30;90.10
1075;DHT22;526;51.392;12.448;2022-09-09T17:03:31;22.10;91.00
1075;DHT22;526;51.392;12.448;2022-09-09T17:05:59;22.00;91.90
1075;DHT22;526;51.392;12.448;2022-09-09T17:08:31;21.80;92.90
1075;DHT22;526;51.392;12.448;2022-09-09T17:10:57;21.60;93.70
1075;DHT22;526;51.392;12.448;2022-09-09T17:13:24;21.50;94.40
1075;DHT22;526;51.392;12.448;2022-09-09T17:15:57;21.30;94.50
1075;DHT22;526;51.392;12.448;2022-09-09T17:18:26;21.20;95.00
1075;DHT22;526;51.392;12.448;2022-09-09T17:20:56;21.00;95.00
1075;DHT22;526;51.392;12.448;2022-09-09T17:23:37;20.90;95.40
1075;DHT22;526;51.392;12.448;2022-09-09T17:26:07;20.70;95.30
1075;DHT22;526;51.392;12.448;2022-09-09T17:28:37;20.60;95.10
1075;DHT22;526;51.392;12.448;2022-09-09T17:31:07;20.50;95.50
1075;DHT22;526;51.392;12.448;2022-09-09T17:33:37;20.50;95.80
1075;DHT22;526;51.392;12.448;2022-09-09T17:36:11;20.40;95.60
1075;DHT22;526;51.392;12.448;2022-09-09T17:38:58;20.20;96.00
1075;DHT22;526;51.392;12.448;2022-09-09T17:41:29;20.10;95.40
1075;DHT22;526;51.392;12.448;2022-09-09T17:43:56;20.00;94.50
1075;DHT22;526;51.392;12.448;2022-09-09T17:46:33;19.90;93.60
1075;DHT22;526;51.392;12.448;2022-09-09T17:49:27;19.80;94.40
1075;DHT22;526;51.392;12.448;2022-09-09T17:52:07;19.80;94.30
1075;DHT22;526;51.392;12.448;2022-09-09T17:54:35;19.80;93.20
1075;DHT22;526;51.392;12.448;2022-09-09T17:57:06;19.70;93.70
1075;DHT22;526;51.392;12.448;2022-09-09T17:59:34;19.70;93.40
1075;DHT22;526;51.392;12.448;2022-09-09T18:02:11;19.70;93.00
1075;DHT22;526;51.392;12.448;2022-09-09T18:04:57;19.70;92.70
1075;DHT22;526;51.392;12.448;2022-09-09T18:07:25;19.70;93.80